sensor_id;sensor_type;location;lat;lon;timestamp;pressure;altitude;pressure_sealevel;temperature;humidity
50592;BME280;36548;50.506;30.834;2023-01-29T00:00:30;100357.41;;;-1.84;71.49
50592;BME280;36548;50.506;30.834;2023-01-29T00:01:39;100354.02;;;-1.94;71.61
50592;BME280;36548;50.506;30.834;2023-01-29T00:02:49;100345.87;;;-1.74;71.53
50592;BME280;36548;50.506;30.834;2023-01-29T00:03:59;100348.44;;;-1.68;70.83
50592;BME280;36548;50.506;30.834;2023-01-29T00:05:08;100347.67;;;-1.79;71.16
50592;BME280;36548;50.506;30.834;2023-01-29T00:06:20;100338.03;;;-1.79;71.21
50592;BME280;36548;50.506;30.834;2023-01-29T00:07:31;100347.92;;;-1.99;71.81
50592;BME280;36548;50.506;30.834;2023-01-29T00:08:40;100356.72;;;-2.02;71.82
50592;BME280;36548;50.506;30.834;2023-01-29T00:09:48;100362.06;;;-2.08;71.96
50592;BME280;36548;50.506;30.834;2023-01-29T00:11:00;100358.48;;;-2.02;72.08
50592;BME280;36548;50.506;30.834;2023-01-29T00:12:10;100358.31;;;-1.87;71.59
50592;BME280;36548;50.506;30.834;2023-01-29T00:13:19;100359.09;;;-1.79;71.27
50592;BME280;36548;50.506;30.834;2023-01-29T00:14:28;100360.83;;;-1.79;71.51
50592;BME280;36548;50.506;30.834;2023-01-29T00:15:38;100359.28;;;-1.97;71.59
50592;BME280;36548;50.506;30.834;2023-01-29T00:16:47;100361.08;;;-1.99;71.70
50592;BME280;36548;50.506;30.834;2023-01-29T00:17:56;100366.06;;;-1.75;71.44
50592;BME280;36548;50.506;30.834;2023-01-29T00:19:05;100358.98;;;-1.71;71.08
50592;BME280;36548;50.506;30.834;2023-01-29T00:20:14;100359.91;;;-1.75;70.68
50592;BME280;36548;50.506;30.834;2023-01-29T00:21:25;100359.87;;;-1.70;70.74
50592;BME280;36548;50.506;30.834;2023-01-29T00:22:33;100358.24;;;-1.82;71.09
50592;BME280;36548;50.506;30.834;2023-01-29T00:23:43;100360.97;;;-1.92;71.49
50592;BME280;36548;50.506;30.834;2023-01-29T00:24:52;100367.93;;;-1.84;71.48
50592;BME280;36548;50.506;30.834;2023-01-29T00:26:01;100358.31;;;-1.87;71.25
50592;BME280;36548;50.506;30.834;2023-01-29T00:27:10;100367.80;;;-1.75;71.26
50592;BME280;36548;50.506;30.834;2023-01-29T00:28:21;100368.53;;;-1.64;70.38
50592;BME280;36548;50.506;30.834;2023-01-29T00:29:30;100356.31;;;-1.66;70.35
50592;BME280;36548;50.506;30.834;2023-01-29T00:30:39;100365.31;;;-1.87;70.99
50592;BME280;36548;50.506;30.834;2023-01-29T00:31:55;100360.55;;;-1.56;70.56
50592;BME280;36548;50.506;30.834;2023-01-29T00:33:04;100359.89;;;-1.72;70.83
50592;BME280;36548;50.506;30.834;2023-01-29T00:34:13;100359.05;;;-1.76;70.78
50592;BME280;36548;50.506;30.834;2023-01-29T00:35:22;100354.63;;;-1.72;70.63
50592;BME280;36548;50.506;30.834;2023-01-29T00:36:31;100366.30;;;-1.96;71.45
50592;BME280;36548;50.506;30.834;2023-01-29T00:37:48;100365.31;;;-1.87;71.31
50592;BME280;36548;50.506;30.834;2023-01-29T00:38:59;100362.50;;;-1.70;71.13
50592;BME280;36548;50.506;30.834;2023-01-29T00:40:11;100362.52;;;-1.74;70.91
50592;BME280;36548;50.506;30.834;2023-01-29T00:41:21;100366.85;;;-1.69;70.66
50592;BME280;36548;50.506;30.834;2023-01-29T00:42:49;100371.30;;;-1.73;70.46
50592;BME280;36548;50.506;30.834;2023-01-29T00:44:17;100365.92;;;-1.65;70.20
50592;BME280;36548;50.506;30.834;2023-01-29T00:45:45;100365.89;;;-1.61;70.57
50592;BME280;36548;50.506;30.834;2023-01-29T00:46:55;100373.80;;;-1.64;70.34
50592;BME280;36548;50.506;30.834;2023-01-29T00:48:05;100373.05;;;-1.72;70.23
50592;BME280;36548;50.506;30.834;2023-01-29T00:49:14;100368.39;;;-1.50;70.34
50592;BME280;36548;50.506;30.834;2023-01-29T00:50:23;100367.55;;;-1.53;69.56
50592;BME280;36548;50.506;30.834;2023-01-29T00:51:33;100366.84;;;-1.66;69.84
50592;BME280;36548;50.506;30.834;2023-01-29T00:52:43;100367.74;;;-1.69;70.06
50592;BME280;36548;50.506;30.834;2023-01-29T00:53:53;100369.65;;;-1.83;70.55
50592;BME280;36548;50.506;30.834;2023-01-29T00:55:12;100366.96;;;-1.77;71.12
50592;BME280;36548;50.506;30.834;2023-01-29T00:56:21;100368.95;;;-1.98;71.39
50592;BME280;36548;50.506;30.834;2023-01-29T00:57:32;100366.41;;;-2.07;71.98
50592;BME280;36548;50.506;30.834;2023-01-29T00:59:07;100363.60;;;-1.92;71.57
50592;BME280;36548;50.506;30.834;2023-01-29T01:00:18;100360.44;;;-2.21;72.14
50592;BME280;36548;50.506;30.834;2023-01-29T01:01:27;100358.48;;;-2.02;71.98
50592;BME280;36548;50.506;30.834;2023-01-29T01:02:55;100365.39;;;-1.94;71.44
50592;BME280;36548;50.506;30.834;2023-01-29T01:04:13;100360.44;;;-2.21;72.03
50592;BME280;36548;50.506;30.834;2023-01-29T01:05:23;100365.73;;;-2.25;72.64
50592;BME280;36548;50.506;30.834;2023-01-29T01:06:35;100359.50;;;-2.16;72.11
50592;BME280;36548;50.506;30.834;2023-01-29T01:07:45;100353.10;;;-1.93;71.60
50592;BME280;36548;50.506;30.834;2023-01-29T01:08:54;100361.02;;;-1.95;71.40
50592;BME280;36548;50.506;30.834;2023-01-29T01:11:43;100346.73;;;-1.72;70.69
50592;BME280;36548;50.506;30.834;2023-01-29T01:13:00;100353.80;;;-1.77;70.64
50592;BME280;36548;50.506;30.834;2023-01-29T01:14:11;100353.05;;;-1.87;70.91
50592;BME280;36548;50.506;30.834;2023-01-29T01:15:24;100355.73;;;-1.93;71.28
50592;BME280;36548;50.506;30.834;2023-01-29T01:16:33;100358.38;;;-1.95;70.92
50592;BME280;36548;50.506;30.834;2023-01-29T01:17:42;100359.27;;;-1.94;71.10
50592;BME280;36548;50.506;30.834;2023-01-29T01:18:51;100358.35;;;-1.90;70.83
50592;BME280;36548;50.506;30.834;2023-01-29T01:20:00;100353.07;;;-1.89;71.00
50592;BME280;36548;50.506;30.834;2023-01-29T01:21:10;100366.14;;;-1.82;70.93
50592;BME280;36548;50.506;30.834;2023-01-29T01:22:19;100367.03;;;-1.82;70.75
50592;BME280;36548;50.506;30.834;2023-01-29T01:23:28;100368.75;;;-1.81;70.57
50592;BME280;36548;50.506;30.834;2023-01-29T01:24:38;100365.95;;;-1.67;70.40
50592;BME280;36548;50.506;30.834;2023-01-29T01:25:47;100373.05;;;-1.74;70.44
50592;BME280;36548;50.506;30.834;2023-01-29T01:26:56;100362.41;;;-1.64;70.30
50592;BME280;36548;50.506;30.834;2023-01-29T01:28:07;100362.18;;;-1.47;69.66
50592;BME280;36548;50.506;30.834;2023-01-29T01:29:18;100362.18;;;-1.47;69.14
50592;BME280;36548;50.506;30.834;2023-01-29T01:30:28;100367.22;;;-1.29;68.68
50592;BME280;36548;50.506;30.834;2023-01-29T01:31:37;100365.47;;;-1.30;68.84
50592;BME280;36548;50.506;30.834;2023-01-29T01:32:48;100361.80;;;-1.20;68.97
50592;BME280;36548;50.506;30.834;2023-01-29T01:33:58;100358.41;;;-1.26;68.85
50592;BME280;36548;50.506;30.834;2023-01-29T01:35:10;100366.37;;;-1.32;69.31
50592;BME280;36548;50.506;30.834;2023-01-29T01:36:27;100361.05;;;-1.26;69.47
50592;BME280;36548;50.506;30.834;2023-01-29T01:37:36;100360.64;;;-1.62;69.01
50592;BME280;36548;50.506;30.834;2023-01-29T01:38:46;100359.78;;;-1.64;69.89
50592;BME280;36548;50.506;30.834;2023-01-29T01:39:56;100357.43;;;-1.86;70.29
50592;BME280;36548;50.506;30.834;2023-01-29T01:41:06;100363.77;;;-2.04;71.07
50592;BME280;36548;50.506;30.834;2023-01-29T01:42:15;100363.76;;;-2.06;71.29
50592;BME280;36548;50.506;30.834;2023-01-29T01:43:24;100366.61;;;-2.26;71.94
50592;BME280;36548;50.506;30.834;2023-01-29T01:44:52;100361.42;;;-2.33;72.56
50592;BME280;36548;50.506;30.834;2023-01-29T01:46:03;100367.39;;;-2.16;72.18
50592;BME280;36548;50.506;30.834;2023-01-29T01:47:12;100360.29;;;-2.08;71.73
50592;BME280;36548;50.506;30.834;2023-01-29T01:48:25;100360.97;;;-1.92;71.35
50592;BME280;36548;50.506;30.834;2023-01-29T01:49:34;100366.36;;;-2.01;71.40
50592;BME280;36548;50.506;30.834;2023-01-29T01:50:52;100358.19;;;-1.76;71.13
50592;BME280;36548;50.506;30.834;2023-01-29T01:52:10;100356.28;;;-1.65;70.49
50592;BME280;36548;50.506;30.834;2023-01-29T01:53:25;100359.59;;;-1.50;70.74
50592;BME280;36548;50.506;30.834;2023-01-29T01:54:36;100360.44;;;-1.47;69.30
50592;BME280;36548;50.506;30.834;2023-01-29T01:55:49;100356.85;;;-1.41;69.87
50592;BME280;36548;50.506;30.834;2023-01-29T01:57:05;100363.11;;;-1.51;69.26
50592;BME280;36548;50.506;30.834;2023-01-29T01:58:25;100364.19;;;-1.65;69.36
50592;BME280;36548;50.506;30.834;2023-01-29T01:59:37;100357.17;;;-1.66;70.04
50592;BME280;36548;50.506;30.834;2023-01-29T05:38:20;100374.99;;;-2.81;81.74
50592;BME280;36548;50.506;30.834;2023-01-29T05:39:30;100381.11;;;-2.81;81.23
50592;BME280;36548;50.506;30.834;2023-01-29T05:40:40;100389.79;;;-2.71;80.64
50592;BME280;36548;50.506;30.834;2023-01-29T05:41:50;100390.58;;;-2.58;80.50
50592;BME280;36548;50.506;30.834;2023-01-29T05:42:59;100384.30;;;-2.40;79.96
50592;BME280;36548;50.506;30.834;2023-01-29T05:44:14;100374.32;;;-2.09;78.91
50592;BME280;36548;50.506;30.834;2023-01-29T05:45:23;100382.14;;;-2.01;77.81
50592;BME280;36548;50.506;30.834;2023-01-29T05:46:33;100382.80;;;-1.80;77.38
50592;BME280;36548;50.506;30.834;2023-01-29T05:47:42;100377.34;;;-1.65;76.04
50592;BME280;36548;50.506;30.834;2023-01-29T05:48:52;100377.13;;;-1.48;75.62
50592;BME280;36548;50.506;30.834;2023-01-29T05:50:00;100379.55;;;-1.32;74.91
50592;BME280;36548;50.506;30.834;2023-01-29T05:51:10;100375.84;;;-1.17;74.35
50592;BME280;36548;50.506;30.834;2023-01-29T05:52:19;100385.28;;;-1.02;73.77
50592;BME280;36548;50.506;30.834;2023-01-29T05:53:28;100377.20;;;-0.90;73.12
50592;BME280;36548;50.506;30.834;2023-01-29T05:54:37;100377.00;;;-0.79;72.47
50592;BME280;36548;50.506;30.834;2023-01-29T05:55:46;100377.73;;;-0.70;71.79
50592;BME280;36548;50.506;30.834;2023-01-29T05:56:55;100384.67;;;-0.62;71.24
50592;BME280;36548;50.506;30.834;2023-01-29T05:58:04;100376.55;;;-0.52;71.13
50592;BME280;36548;50.506;30.834;2023-01-29T05:59:15;100373.77;;;-0.42;70.31
50592;BME280;36548;50.506;30.834;2023-01-29T06:00:24;100379.81;;;-0.36;69.88
50592;BME280;36548;50.506;30.834;2023-01-29T06:01:34;100376.09;;;-0.25;70.21
50592;BME280;36548;50.506;30.834;2023-01-29T06:02:49;100366.94;;;-0.04;69.45
50592;BME280;36548;50.506;30.834;2023-01-29T06:03:58;100369.77;;;-0.15;68.54
50592;BME280;36548;50.506;30.834;2023-01-29T06:05:08;100373.34;;;-0.18;68.64
50592;BME280;36548;50.506;30.834;2023-01-29T06:06:17;100376.09;;;-0.25;68.65
50592;BME280;36548;50.506;30.834;2023-01-29T06:07:27;100385.09;;;-0.36;68.39
50592;BME280;36548;50.506;30.834;2023-01-29T06:08:38;100381.73;;;-0.45;68.77
50592;BME280;36548;50.506;30.834;2023-01-29T06:09:47;100383.61;;;-0.52;69.08
50592;BME280;36548;50.506;30.834;2023-01-29T06:10:56;100378.42;;;-0.57;69.57
50592;BME280;36548;50.506;30.834;2023-01-29T06:12:05;100383.80;;;-0.64;69.31
50592;BME280;36548;50.506;30.834;2023-01-29T06:13:15;100383.92;;;-0.71;69.42
50592;BME280;36548;50.506;30.834;2023-01-29T06:14:25;100383.09;;;-0.74;69.95
50592;BME280;36548;50.506;30.834;2023-01-29T06:15:38;100386.72;;;-0.81;69.54
50592;BME280;36548;50.506;30.834;2023-01-29T06:16:48;100391.18;;;-0.87;69.80
50592;BME280;36548;50.506;30.834;2023-01-29T06:17:57;100393.01;;;-0.92;70.04
50592;BME280;36548;50.506;30.834;2023-01-29T06:19:06;100394.81;;;-0.94;70.27
50592;BME280;36548;50.506;30.834;2023-01-29T06:20:16;100391.36;;;-0.99;70.19
50592;BME280;36548;50.506;30.834;2023-01-29T06:21:32;100379.81;;;-0.89;70.16
50592;BME280;36548;50.506;30.834;2023-01-29T06:22:41;100384.27;;;-0.94;70.35
50592;BME280;36548;50.506;30.834;2023-01-29T06:23:53;100386.77;;;-0.84;70.23
50592;BME280;36548;50.506;30.834;2023-01-29T06:25:04;100380.45;;;-0.74;69.59
50592;BME280;36548;50.506;30.834;2023-01-29T06:26:15;100384.64;;;-0.61;69.81
50592;BME280;36548;50.506;30.834;2023-01-29T06:27:24;100378.30;;;-0.50;68.85
50592;BME280;36548;50.506;30.834;2023-01-29T06:28:34;100380.85;;;-0.44;68.52
50592;BME280;36548;50.506;30.834;2023-01-29T06:29:45;100381.68;;;-0.42;68.77
50592;BME280;36548;50.506;30.834;2023-01-29T06:31:02;100381.53;;;-0.33;68.64
50592;BME280;36548;50.506;30.834;2023-01-29T06:32:13;100383.52;;;-0.47;68.97
50592;BME280;36548;50.506;30.834;2023-01-29T06:33:21;100389.71;;;-0.48;69.30
50592;BME280;36548;50.506;30.834;2023-01-29T06:34:36;100389.56;;;-0.41;69.23
50592;BME280;36548;50.506;30.834;2023-01-29T06:35:46;100390.69;;;-0.54;69.19
50592;BME280;36548;50.506;30.834;2023-01-29T06:36:55;100386.36;;;-0.58;69.32
50592;BME280;36548;50.506;30.834;2023-01-29T06:38:03;100387.27;;;-0.61;69.50
50592;BME280;36548;50.506;30.834;2023-01-29T06:39:12;100393.47;;;-0.63;69.31
50592;BME280;36548;50.506;30.834;2023-01-29T06:40:22;100390.02;;;-0.69;68.80
50592;BME280;36548;50.506;30.834;2023-01-29T06:41:33;100389.24;;;-0.75;68.91
50592;BME280;36548;50.506;30.834;2023-01-29T06:42:41;100391.05;;;-0.77;69.53
50592;BME280;36548;50.506;30.834;2023-01-29T06:43:53;100391.08;;;-0.79;69.64
50592;BME280;36548;50.506;30.834;2023-01-29T06:45:03;100391.99;;;-0.81;70.05
50592;BME280;36548;50.506;30.834;2023-01-29T06:46:12;100384.97;;;-0.82;70.03
50592;BME280;36548;50.506;30.834;2023-01-29T06:47:22;100387.66;;;-0.86;69.84
50592;BME280;36548;50.506;30.834;2023-01-29T06:48:32;100398.17;;;-0.84;70.13
50592;BME280;36548;50.506;30.834;2023-01-29T06:49:42;100389.30;;;-0.78;69.77
50592;BME280;36548;50.506;30.834;2023-01-29T06:51:17;100382.86;;;-0.60;69.43
50592;BME280;36548;50.506;30.834;2023-01-29T06:52:26;100389.14;;;-0.67;69.24
50592;BME280;36548;50.506;30.834;2023-01-29T06:53:37;100385.61;;;-0.66;68.74
50592;BME280;36548;50.506;30.834;2023-01-29T06:54:51;100386.33;;;-0.57;69.25
50592;BME280;36548;50.506;30.834;2023-01-29T06:56:00;100387.13;;;-0.53;69.35
50592;BME280;36548;50.506;30.834;2023-01-29T06:57:16;100385.23;;;-0.45;69.30
50592;BME280;36548;50.506;30.834;2023-01-29T06:58:25;100387.30;;;-0.64;68.93
50592;BME280;36548;50.506;30.834;2023-01-29T06:59:40;100387.22;;;-0.58;69.35
50592;BME280;36548;50.506;30.834;2023-01-29T07:00:50;100391.80;;;-0.69;69.81
50592;BME280;36548;50.506;30.834;2023-01-29T07:02:00;100390.94;;;-0.71;70.00
50592;BME280;36548;50.506;30.834;2023-01-29T07:03:15;100385.52;;;-0.62;70.52
50592;BME280;36548;50.506;30.834;2023-01-29T07:04:24;100392.72;;;-0.72;70.57
50592;BME280;36548;50.506;30.834;2023-01-29T07:05:33;100393.59;;;-0.73;70.54
50592;BME280;36548;50.506;30.834;2023-01-29T07:06:42;100390.16;;;-0.78;69.97
50592;BME280;36548;50.506;30.834;2023-01-29T07:07:51;100391.83;;;-0.71;70.29
50592;BME280;36548;50.506;30.834;2023-01-29T07:09:01;100388.16;;;-0.62;70.29
50592;BME280;36548;50.506;30.834;2023-01-29T07:10:11;100386.30;;;-0.55;69.87
50592;BME280;36548;50.506;30.834;2023-01-29T07:11:20;100385.33;;;-0.49;69.74
50592;BME280;36548;50.506;30.834;2023-01-29T07:12:29;100379.02;;;-0.41;69.78
50592;BME280;36548;50.506;30.834;2023-01-29T07:13:38;100385.09;;;-0.36;69.41
50592;BME280;36548;50.506;30.834;2023-01-29T07:14:47;100378.95;;;-0.36;69.14
50592;BME280;36548;50.506;30.834;2023-01-29T07:16:00;100383.30;;;-0.35;69.75
50592;BME280;36548;50.506;30.834;2023-01-29T07:17:15;100377.84;;;-0.24;70.01
50592;BME280;36548;50.506;30.834;2023-01-29T07:18:25;100378.95;;;-0.38;70.16
50592;BME280;36548;50.506;30.834;2023-01-29T07:19:35;100377.27;;;-0.42;69.93
50592;BME280;36548;50.506;30.834;2023-01-29T07:20:45;100380.85;;;-0.44;70.02
50592;BME280;36548;50.506;30.834;2023-01-29T07:21:54;100377.20;;;-0.37;70.22
50592;BME280;36548;50.506;30.834;2023-01-29T07:23:04;100378.03;;;-0.35;69.99
50592;BME280;36548;50.506;30.834;2023-01-29T07:24:15;100373.59;;;-0.31;69.94
50592;BME280;36548;50.506;30.834;2023-01-29T07:25:24;100369.08;;;-0.25;69.86
50592;BME280;36548;50.506;30.834;2023-01-29T07:26:39;100367.77;;;-0.02;70.13
50592;BME280;36548;50.506;30.834;2023-01-29T07:27:48;100373.20;;;-0.11;69.65
50592;BME280;36548;50.506;30.834;2023-01-29T07:28:57;100371.48;;;-0.12;69.97
50592;BME280;36548;50.506;30.834;2023-01-29T07:30:08;100373.23;;;-0.13;69.69
50592;BME280;36548;50.506;30.834;2023-01-29T07:31:23;100374.76;;;0.01;69.71
50592;BME280;36548;50.506;30.834;2023-01-29T07:32:31;100376.77;;;-0.12;69.67
50592;BME280;36548;50.506;30.834;2023-01-29T07:33:44;100379.41;;;-0.14;69.96
50592;BME280;36548;50.506;30.834;2023-01-29T07:34:59;100371.36;;;-0.06;70.19
50592;BME280;36548;50.506;30.834;2023-01-29T07:36:09;100378.58;;;-0.16;70.57
50592;BME280;36548;50.506;30.834;2023-01-29T07:37:18;100389.16;;;-0.18;70.49
50592;BME280;36548;50.506;30.834;2023-01-29T07:38:27;100389.99;;;-0.15;70.50
50592;BME280;36548;50.506;30.834;2023-01-29T07:40:02;100377.44;;;-0.01;69.76
50592;BME280;36548;50.506;30.834;2023-01-29T07:41:12;100379.18;;;-0.02;69.99
50592;BME280;36548;50.506;30.834;2023-01-29T07:42:23;100379.80;;;0.13;69.75
50592;BME280;36548;50.506;30.834;2023-01-29T07:43:33;100374.32;;;0.24;69.80
50592;BME280;36548;50.506;30.834;2023-01-29T07:44:42;100368.90;;;0.30;69.56
50592;BME280;36548;50.506;30.834;2023-01-29T07:45:54;100372.40;;;0.32;69.55
50592;BME280;36548;50.506;30.834;2023-01-29T07:47:05;100374.25;;;0.27;69.01
50592;BME280;36548;50.506;30.834;2023-01-29T07:48:14;100371.61;;;0.27;69.49
50592;BME280;36548;50.506;30.834;2023-01-29T07:49:29;100371.47;;;0.33;69.45
50592;BME280;36548;50.506;30.834;2023-01-29T07:50:39;100374.45;;;0.16;69.43
50592;BME280;36548;50.506;30.834;2023-01-29T07:51:49;100372.78;;;0.12;69.61
50592;BME280;36548;50.506;30.834;2023-01-29T07:52:59;100369.31;;;0.08;69.76
50592;BME280;36548;50.506;30.834;2023-01-29T07:54:15;100362.94;;;0.20;70.38
50592;BME280;36548;50.506;30.834;2023-01-29T07:55:25;100372.91;;;0.06;70.23
50592;BME280;36548;50.506;30.834;2023-01-29T07:56:42;100370.07;;;0.15;70.62
50592;BME280;36548;50.506;30.834;2023-01-29T07:57:59;100374.80;;;-0.01;70.15
50592;BME280;36548;50.506;30.834;2023-01-29T07:59:09;100375.55;;;0.06;70.38
50592;BME280;36548;50.506;30.834;2023-01-29T08:00:19;100370.96;;;0.15;70.14
50592;BME280;36548;50.506;30.834;2023-01-29T08:01:28;100371.72;;;0.21;69.64
50592;BME280;36548;50.506;30.834;2023-01-29T08:02:43;100367.72;;;0.45;69.87
50592;BME280;36548;50.506;30.834;2023-01-29T08:03:53;100373.90;;;0.44;69.35
50592;BME280;36548;50.506;30.834;2023-01-29T08:05:03;100374.50;;;0.57;69.46
50592;BME280;36548;50.506;30.834;2023-01-29T08:06:12;100371.67;;;0.66;68.91
50592;BME280;36548;50.506;30.834;2023-01-29T08:07:28;100372.26;;;0.79;69.14
50592;BME280;36548;50.506;30.834;2023-01-29T08:08:37;100370.06;;;0.59;68.41
50592;BME280;36548;50.506;30.834;2023-01-29T08:09:46;100370.89;;;0.61;69.37
50592;BME280;36548;50.506;30.834;2023-01-29T08:10:59;100370.85;;;0.62;69.58
50592;BME280;36548;50.506;30.834;2023-01-29T08:12:14;100365.41;;;0.70;69.78
50592;BME280;36548;50.506;30.834;2023-01-29T08:13:23;100373.56;;;0.59;69.90
50592;BME280;36548;50.506;30.834;2023-01-29T08:14:57;100371.52;;;0.74;70.67
50592;BME280;36548;50.506;30.834;2023-01-29T08:16:07;100371.86;;;0.57;69.58
50592;BME280;36548;50.506;30.834;2023-01-29T08:17:22;100368.25;;;0.61;69.57
50592;BME280;36548;50.506;30.834;2023-01-29T08:18:31;100379.03;;;0.50;69.88
50592;BME280;36548;50.506;30.834;2023-01-29T08:19:40;100385.06;;;0.57;70.08
50592;BME280;36548;50.506;30.834;2023-01-29T08:20:50;100376.98;;;0.64;70.23
50592;BME280;36548;50.506;30.834;2023-01-29T08:22:00;100380.48;;;0.65;69.78
50592;BME280;36548;50.506;30.834;2023-01-29T08:23:14;100376.98;;;0.64;70.06
50592;BME280;36548;50.506;30.834;2023-01-29T08:24:25;100376.88;;;0.69;69.75
50592;BME280;36548;50.506;30.834;2023-01-29T08:25:35;100378.48;;;0.76;70.05
50592;BME280;36548;50.506;30.834;2023-01-29T08:26:44;100382.83;;;0.79;69.58
50592;BME280;36548;50.506;30.834;2023-01-29T08:28:00;100379.95;;;0.90;69.45
50592;BME280;36548;50.506;30.834;2023-01-29T08:29:10;100386.28;;;0.82;69.49
50592;BME280;36548;50.506;30.834;2023-01-29T08:30:20;100386.98;;;0.91;69.74
50592;BME280;36548;50.506;30.834;2023-01-29T08:31:29;100378.90;;;0.97;69.56
50592;BME280;36548;50.506;30.834;2023-01-29T08:32:39;100388.54;;;0.99;69.46
50592;BME280;36548;50.506;30.834;2023-01-29T08:33:48;100386.83;;;0.97;69.46
50592;BME280;36548;50.506;30.834;2023-01-29T08:35:04;100385.81;;;1.02;69.84
50592;BME280;36548;50.506;30.834;2023-01-29T08:36:14;100388.73;;;0.90;69.82
50592;BME280;36548;50.506;30.834;2023-01-29T08:37:29;100393.86;;;0.98;69.84
50592;BME280;36548;50.506;30.834;2023-01-29T08:38:38;100394.17;;;0.84;69.97
50592;BME280;36548;50.506;30.834;2023-01-29T08:39:47;100391.57;;;0.82;70.09
50592;BME280;36548;50.506;30.834;2023-01-29T08:40:57;100388.11;;;0.79;70.04
50592;BME280;36548;50.506;30.834;2023-01-29T08:42:06;100386.41;;;0.76;70.42
50592;BME280;36548;50.506;30.834;2023-01-29T08:43:21;100389.75;;;0.84;70.28
50592;BME280;36548;50.506;30.834;2023-01-29T08:44:31;100387.25;;;0.78;70.52
50592;BME280;36548;50.506;30.834;2023-01-29T08:45:42;100386.21;;;0.85;69.98
50592;BME280;36548;50.506;30.834;2023-01-29T08:46:52;100385.27;;;0.88;69.33
50592;BME280;36548;50.506;30.834;2023-01-29T08:48:01;100382.48;;;0.94;69.03
50592;BME280;36548;50.506;30.834;2023-01-29T08:49:11;100382.28;;;1.04;69.43
50592;BME280;36548;50.506;30.834;2023-01-29T08:50:21;100375.08;;;1.10;69.75
50592;BME280;36548;50.506;30.834;2023-01-29T08:51:36;100374.83;;;1.21;69.67
50592;BME280;36548;50.506;30.834;2023-01-29T08:52:45;100378.66;;;1.08;69.80
50592;BME280;36548;50.506;30.834;2023-01-29T08:53:54;100380.49;;;1.04;69.74
50592;BME280;36548;50.506;30.834;2023-01-29T08:55:03;100371.63;;;1.07;70.22
50592;BME280;36548;50.506;30.834;2023-01-29T08:56:13;100377.80;;;1.07;70.09
50592;BME280;36548;50.506;30.834;2023-01-29T08:57:23;100377.92;;;1.01;69.69
50592;BME280;36548;50.506;30.834;2023-01-29T08:58:33;100380.69;;;0.96;69.38
50592;BME280;36548;50.506;30.834;2023-01-29T08:59:41;100377.92;;;1.01;69.46
50592;BME280;36548;50.506;30.834;2023-01-29T09:00:50;100376.02;;;1.08;69.69
50592;BME280;36548;50.506;30.834;2023-01-29T09:02:00;100372.44;;;1.10;69.48
50592;BME280;36548;50.506;30.834;2023-01-29T09:03:08;100376.88;;;1.08;69.62
50592;BME280;36548;50.506;30.834;2023-01-29T09:04:17;100376.91;;;1.07;69.73
50592;BME280;36548;50.506;30.834;2023-01-29T09:05:27;100372.55;;;1.06;70.09
50592;BME280;36548;50.506;30.834;2023-01-29T09:06:36;100370.81;;;1.05;70.26
50592;BME280;36548;50.506;30.834;2023-01-29T09:07:48;100375.20;;;1.04;70.60
50592;BME280;36548;50.506;30.834;2023-01-29T09:09:03;100365.31;;;1.14;70.18
50592;BME280;36548;50.506;30.834;2023-01-29T09:10:12;100375.08;;;1.10;70.38
50592;BME280;36548;50.506;30.834;2023-01-29T09:11:21;100363.32;;;1.22;70.36
50592;BME280;36548;50.506;30.834;2023-01-29T09:12:32;100367.58;;;1.29;69.49
50592;BME280;36548;50.506;30.834;2023-01-29T09:13:41;100369.04;;;1.41;69.28
50592;BME280;36548;50.506;30.834;2023-01-29T09:14:49;100364.38;;;1.51;68.61
50592;BME280;36548;50.506;30.834;2023-01-29T09:16:02;100358.11;;;1.55;68.07
50592;BME280;36548;50.506;30.834;2023-01-29T09:17:11;100363.48;;;1.52;67.77
50592;BME280;36548;50.506;30.834;2023-01-29T09:18:20;100357.34;;;1.50;68.54
50592;BME280;36548;50.506;30.834;2023-01-29T09:19:29;100359.27;;;1.45;68.52
50592;BME280;36548;50.506;30.834;2023-01-29T09:20:38;100355.81;;;1.41;68.95
50592;BME280;36548;50.506;30.834;2023-01-29T09:21:48;100359.40;;;1.39;69.20
50592;BME280;36548;50.506;30.834;2023-01-29T09:22:57;100351.63;;;1.32;69.29
50592;BME280;36548;50.506;30.834;2023-01-29T09:24:06;100356.02;;;1.33;70.05
50592;BME280;36548;50.506;30.834;2023-01-29T09:25:17;100360.38;;;1.34;70.40
50592;BME280;36548;50.506;30.834;2023-01-29T09:26:27;100348.05;;;1.35;70.39
50592;BME280;36548;50.506;30.834;2023-01-29T09:27:36;100355.94;;;1.36;70.06
50592;BME280;36548;50.506;30.834;2023-01-29T09:28:52;100352.95;;;1.50;69.41
50592;BME280;36548;50.506;30.834;2023-01-29T09:30:02;100345.95;;;1.48;69.31
50592;BME280;36548;50.506;30.834;2023-01-29T09:31:19;100346.17;;;1.73;69.06
50592;BME280;36548;50.506;30.834;2023-01-29T09:32:29;100345.42;;;1.68;68.84
50592;BME280;36548;50.506;30.834;2023-01-29T09:33:40;100352.55;;;1.66;68.24
50592;BME280;36548;50.506;30.834;2023-01-29T09:34:49;100346.44;;;1.64;68.51
50592;BME280;36548;50.506;30.834;2023-01-29T09:36:24;100343.70;;;1.67;68.25
50592;BME280;36548;50.506;30.834;2023-01-29T09:37:34;100347.52;;;1.55;68.90
50592;BME280;36548;50.506;30.834;2023-01-29T09:38:43;100348.52;;;1.51;68.86
50592;BME280;36548;50.506;30.834;2023-01-29T09:39:52;100349.45;;;1.48;68.86
50592;BME280;36548;50.506;30.834;2023-01-29T09:41:17;100342.59;;;1.41;68.39
50592;BME280;36548;50.506;30.834;2023-01-29T09:42:33;100346.98;;;1.42;69.01
50592;BME280;36548;50.506;30.834;2023-01-29T09:43:52;100335.33;;;1.49;68.79
50592;BME280;36548;50.506;30.834;2023-01-29T09:47:37;100341.91;;;1.33;69.16
50592;BME280;36548;50.506;30.834;2023-01-29T09:48:46;100335.90;;;1.26;68.85
50592;BME280;36548;50.506;30.834;2023-01-29T09:49:59;100344.72;;;1.27;69.37
50592;BME280;36548;50.506;30.834;2023-01-29T09:51:24;100337.64;;;1.27;69.71